createdAt,value
2022-11-13T00:00:05.497Z,0.70
2022-11-13T00:02:54.283Z,0.80
2022-11-13T00:05:43.429Z,1.20
2022-11-13T00:08:32.459Z,0.80
2022-11-13T00:11:28.292Z,0.60
2022-11-13T00:14:16.726Z,0.60
2022-11-13T00:17:10.396Z,0.97
2022-11-13T00:20:02.647Z,0.80
2022-11-13T00:22:51.138Z,0.90
2022-11-13T00:25:40.031Z,1.00
2022-11-13T00:28:29.348Z,1.20
2022-11-13T00:31:22.350Z,1.17
2022-11-13T00:34:40.964Z,1.07
2022-11-13T00:37:24.180Z,1.30
2022-11-13T00:40:16.113Z,1.00
2022-11-13T00:43:04.593Z,1.13
2022-11-13T00:45:54.086Z,0.97
2022-11-13T00:48:43.376Z,0.80
2022-11-13T00:51:35.269Z,1.00
2022-11-13T00:54:23.591Z,0.97
2022-11-13T00:57:13.063Z,1.10
2022-11-13T01:00:03.154Z,0.80
2022-11-13T01:02:52.480Z,0.53
2022-11-13T01:05:41.416Z,0.53
2022-11-13T01:08:32.706Z,0.53
2022-11-13T01:11:25.154Z,0.50
2022-11-13T01:14:13.423Z,0.87
2022-11-13T01:17:04.157Z,0.70
2022-11-13T01:19:52.571Z,0.40
2022-11-13T01:22:41.390Z,0.67
2022-11-13T01:25:33.944Z,0.70
2022-11-13T01:28:22.284Z,0.67
2022-11-13T01:31:13.036Z,0.90
2022-11-13T01:34:01.813Z,0.57
2022-11-13T01:36:53.255Z,0.80
2022-11-13T01:39:42.153Z,0.70
2022-11-13T01:42:35.923Z,0.80
2022-11-13T01:46:05.215Z,1.07
2022-11-13T01:48:59.911Z,0.57
2022-11-13T01:51:53.933Z,0.57
2022-11-13T01:54:50.562Z,0.60
2022-11-13T01:57:43.127Z,0.40
2022-11-13T02:00:31.844Z,0.60
2022-11-13T02:03:24.562Z,0.40
2022-11-13T02:06:13.140Z,0.50
2022-11-13T02:09:01.651Z,0.60
2022-11-13T02:11:52.155Z,0.40
2022-11-13T02:14:46.777Z,0.40
2022-11-13T02:17:39.614Z,0.60
2022-11-13T02:20:35.786Z,0.57
2022-11-13T02:23:31.137Z,0.40
2022-11-13T02:26:25.783Z,0.50
2022-11-13T02:29:15.448Z,0.30
2022-11-13T02:32:09.545Z,0.40
2022-11-13T02:34:58.458Z,0.40
2022-11-13T02:37:47.165Z,0.47
2022-11-13T02:40:36.570Z,0.53
2022-11-13T02:43:27.696Z,0.40
2022-11-13T02:46:17.163Z,0.40
2022-11-13T02:49:05.947Z,0.50
2022-11-13T02:51:55.843Z,0.67
2022-11-13T02:54:44.339Z,0.60
2022-11-13T02:57:33.390Z,0.47
2022-11-13T03:00:24.627Z,0.40
2022-11-13T03:03:12.946Z,0.60
2022-11-13T03:06:02.509Z,0.50
2022-11-13T03:08:51.268Z,0.87
2022-11-13T03:11:40.771Z,0.40
2022-11-13T03:14:29.190Z,0.47
2022-11-13T03:17:21.171Z,0.70
2022-11-13T03:20:10.544Z,0.60
2022-11-13T03:22:59.322Z,0.50
2022-11-13T03:25:48.910Z,0.80
2022-11-13T03:28:38.926Z,0.50
2022-11-13T03:31:28.026Z,0.40
2022-11-13T03:34:18.978Z,0.50
2022-11-13T03:37:07.510Z,0.40
2022-11-13T03:39:56.250Z,0.53
2022-11-13T03:42:44.788Z,0.40
2022-11-13T03:45:33.955Z,0.43
2022-11-13T03:48:22.201Z,0.40
2022-11-13T03:51:14.137Z,0.30
2022-11-13T03:54:02.588Z,0.40
2022-11-13T03:56:52.707Z,0.30
2022-11-13T03:59:42.471Z,0.40
2022-11-13T04:02:31.888Z,0.30
2022-11-13T04:05:22.842Z,0.40
2022-11-13T04:08:14.075Z,0.30
2022-11-13T04:11:09.764Z,0.40
2022-11-13T04:13:58.215Z,0.30
2022-11-13T04:16:47.003Z,0.30
2022-11-13T04:19:35.579Z,0.40
2022-11-13T04:22:24.985Z,0.60
2022-11-13T04:25:16.589Z,0.40
2022-11-13T04:28:04.761Z,0.40
2022-11-13T04:30:56.555Z,0.40
2022-11-13T04:33:44.965Z,0.30
2022-11-13T04:36:33.933Z,0.40
2022-11-13T04:39:22.206Z,0.30
2022-11-13T04:42:28.799Z,0.30
2022-11-13T04:45:18.685Z,0.40
2022-11-13T04:48:07.552Z,0.30
2022-11-13T04:50:56.112Z,0.30
2022-11-13T04:53:44.330Z,0.40
2022-11-13T04:56:33.753Z,0.30
2022-11-13T04:59:24.873Z,0.30
2022-11-13T05:02:14.293Z,0.40
2022-11-13T05:05:05.463Z,0.40
2022-11-13T05:07:55.025Z,0.30
2022-11-13T05:10:44.767Z,0.50
2022-11-13T05:13:33.725Z,0.30
2022-11-13T05:16:25.731Z,0.30
2022-11-13T05:19:14.290Z,0.33
2022-11-13T05:22:04.045Z,0.50
2022-11-13T05:24:52.633Z,0.40
2022-11-13T05:27:41.038Z,0.40
2022-11-13T05:30:31.205Z,0.40
2022-11-13T05:33:23.007Z,0.30
2022-11-13T05:36:14.903Z,0.40
2022-11-13T05:39:03.550Z,0.30
2022-11-13T05:41:52.234Z,0.30
2022-11-13T05:44:40.492Z,0.30
2022-11-13T05:47:29.726Z,0.30
2022-11-13T05:50:23.250Z,0.40
2022-11-13T05:53:11.886Z,0.30
2022-11-13T05:56:05.644Z,0.33
2022-11-13T05:58:55.556Z,0.30
2022-11-13T06:01:48.366Z,0.30
2022-11-13T06:04:37.095Z,0.30
2022-11-13T06:07:28.720Z,0.30
2022-11-13T06:10:18.059Z,0.30
2022-11-13T06:13:06.846Z,0.30
2022-11-13T06:15:56.914Z,0.40
2022-11-13T06:18:47.051Z,0.30
2022-11-13T06:21:37.847Z,0.30
2022-11-13T06:24:28.816Z,0.47
2022-11-13T06:27:18.862Z,0.50
2022-11-13T06:30:08.792Z,0.37
2022-11-13T06:32:57.494Z,0.50
2022-11-13T06:35:46.510Z,0.40
2022-11-13T06:38:36.039Z,0.30
2022-11-13T06:41:30.061Z,0.40
2022-11-13T06:44:18.356Z,1.10
2022-11-13T06:47:08.706Z,0.53
2022-11-13T06:49:57.880Z,0.90
2022-11-13T06:52:47.088Z,1.00
2022-11-13T06:55:35.765Z,1.00
2022-11-13T06:58:27.537Z,2.00
2022-11-13T07:01:19.051Z,1.00
2022-11-13T07:04:07.840Z,2.80
2022-11-13T07:06:57.965Z,1.00
2022-11-13T07:09:46.752Z,1.70
2022-11-13T07:12:35.877Z,0.60
2022-11-13T07:15:27.082Z,0.90
2022-11-13T07:18:21.423Z,1.00
2022-11-13T07:21:15.368Z,1.20
2022-11-13T07:24:04.216Z,1.27
2022-11-13T07:26:54.313Z,1.23
2022-11-13T07:29:42.794Z,0.80
2022-11-13T07:32:34.119Z,1.23
2022-11-13T07:35:23.549Z,0.60
2022-11-13T07:38:13.552Z,0.97
2022-11-13T07:41:04.785Z,0.77
2022-11-13T07:43:53.356Z,0.50
2022-11-13T07:46:42.868Z,0.60
2022-11-13T07:49:33.966Z,0.90
2022-11-13T07:52:23.418Z,1.30
2022-11-13T07:55:12.437Z,2.40
2022-11-13T07:58:01.885Z,1.00
2022-11-13T08:00:50.634Z,2.30
2022-11-13T08:03:39.621Z,2.10
2022-11-13T08:06:31.882Z,1.83
2022-11-13T08:09:20.133Z,0.70
2022-11-13T08:12:09.260Z,0.40
2022-11-13T08:14:57.547Z,0.40
2022-11-13T08:17:47.137Z,0.40
2022-11-13T08:20:36.700Z,0.80
2022-11-13T08:23:27.698Z,1.07
2022-11-13T08:26:17.021Z,1.00
2022-11-13T08:29:05.382Z,0.60
2022-11-13T08:31:53.744Z,0.30
2022-11-13T08:34:42.246Z,0.40
2022-11-13T08:37:31.769Z,0.53
2022-11-13T08:40:23.907Z,0.90
2022-11-13T08:43:12.373Z,1.90
2022-11-13T08:46:02.073Z,1.50
2022-11-13T08:48:50.338Z,1.17
2022-11-13T08:51:39.970Z,0.80
2022-11-13T08:54:28.455Z,0.50
2022-11-13T08:57:20.431Z,0.50
2022-11-13T09:00:10.945Z,0.43
2022-11-13T09:03:02.688Z,3.20
2022-11-13T09:05:54.547Z,1.63
2022-11-13T09:08:42.974Z,1.20
2022-11-13T09:11:33.157Z,1.40
2022-11-13T09:14:25.136Z,1.43
2022-11-13T09:17:15.414Z,2.03
2022-11-13T09:20:04.966Z,1.60
2022-11-13T09:23:01.662Z,1.33
2022-11-13T09:25:50.757Z,1.03
2022-11-13T09:28:39.569Z,1.20
2022-11-13T09:31:31.618Z,1.10
2022-11-13T09:34:20.465Z,1.57
2022-11-13T09:37:10.910Z,2.00
2022-11-13T09:39:59.926Z,1.20
2022-11-13T09:42:49.368Z,0.90
2022-11-13T09:45:45.495Z,1.30
2022-11-13T09:48:39.832Z,0.70
2022-11-13T09:51:32.956Z,0.83
2022-11-13T09:54:23.132Z,0.80
2022-11-13T09:57:26.809Z,1.17
2022-11-13T10:00:19.312Z,0.97
2022-11-13T10:03:54.259Z,0.87
2022-11-13T10:06:58.206Z,0.90
2022-11-13T10:10:03.045Z,0.83
2022-11-13T10:12:57.231Z,1.00
2022-11-13T10:15:48.039Z,1.13
2022-11-13T10:18:40.995Z,0.70
2022-11-13T10:21:37.722Z,0.50
2022-11-13T10:24:33.010Z,0.40
2022-11-13T10:27:23.426Z,0.50
2022-11-13T10:30:18.421Z,0.47
2022-11-13T10:33:10.957Z,0.60
2022-11-13T10:36:08.271Z,1.50
2022-11-13T10:39:04.146Z,1.30
2022-11-13T10:41:59.468Z,0.40
2022-11-13T10:44:57.851Z,0.70
2022-11-13T10:48:07.176Z,0.53
2022-11-13T10:50:59.593Z,1.07
2022-11-13T10:53:51.448Z,0.40
2022-11-13T10:56:41.811Z,0.57
2022-11-13T10:59:42.669Z,0.40
2022-11-13T11:02:32.773Z,0.30
2022-11-13T11:05:23.974Z,0.40
2022-11-13T11:08:14.488Z,0.40
2022-11-13T11:11:18.426Z,0.30
2022-11-13T11:14:14.401Z,0.60
2022-11-13T11:17:08.543Z,0.50
2022-11-13T11:20:03.343Z,0.50
2022-11-13T11:22:56.293Z,0.50
2022-11-13T11:25:51.014Z,0.70
2022-11-13T11:28:46.241Z,0.80
2022-11-13T11:31:41.333Z,0.80
2022-11-13T11:34:38.578Z,0.90
2022-11-13T11:37:34.311Z,1.00
2022-11-13T11:40:30.427Z,1.33
2022-11-13T11:43:24.673Z,1.10
2022-11-13T11:46:15.634Z,1.27
2022-11-13T11:49:05.088Z,1.30
2022-11-13T11:52:07.287Z,1.20
2022-11-13T11:55:07.953Z,1.43
2022-11-13T11:58:04.564Z,1.10
2022-11-13T12:00:56.851Z,1.03
2022-11-13T12:04:04.091Z,1.00
2022-11-13T12:07:26.857Z,0.90
2022-11-13T12:10:30.051Z,1.00
2022-11-13T12:13:30.081Z,0.90
2022-11-13T12:16:26.406Z,0.70
2022-11-13T12:19:23.336Z,0.83
2022-11-13T12:22:25.868Z,0.73
2022-11-13T12:25:27.770Z,0.80
2022-11-13T12:28:23.937Z,0.73
2022-11-13T12:31:21.214Z,1.00
2022-11-13T12:34:23.163Z,0.60
2022-11-13T12:37:20.778Z,0.60
2022-11-13T12:40:16.997Z,0.77
2022-11-13T12:43:28.568Z,0.60
2022-11-13T12:46:17.899Z,0.63
2022-11-13T12:49:26.762Z,0.50
2022-11-13T12:52:26.180Z,0.60
2022-11-13T12:55:29.201Z,0.70
2022-11-13T12:58:25.187Z,0.80
2022-11-13T13:01:20.623Z,0.70
2022-11-13T13:04:38.000Z,0.60
2022-11-13T13:07:45.843Z,0.80
2022-11-13T13:10:39.301Z,0.80
2022-11-13T13:13:34.257Z,0.80
2022-11-13T13:16:28.251Z,0.87
2022-11-13T13:19:30.064Z,1.60
2022-11-13T13:22:28.822Z,0.80
2022-11-13T13:25:35.626Z,0.90
2022-11-13T13:28:26.593Z,0.87
2022-11-13T13:31:32.814Z,1.20
2022-11-13T13:34:35.422Z,1.10
2022-11-13T13:37:37.301Z,0.80
2022-11-13T13:40:50.810Z,1.20
2022-11-13T13:43:55.417Z,0.87
2022-11-13T13:46:45.148Z,0.97
2022-11-13T13:49:35.459Z,0.90
2022-11-13T13:52:31.607Z,0.70
2022-11-13T13:55:30.549Z,1.00
2022-11-13T13:58:27.826Z,1.00
2022-11-13T14:01:20.182Z,1.10
2022-11-13T14:04:15.717Z,1.10
2022-11-13T14:07:05.833Z,1.07
2022-11-13T14:10:09.443Z,1.40
2022-11-13T14:13:00.093Z,1.10
2022-11-13T14:15:51.984Z,1.10
2022-11-13T14:18:42.625Z,1.07
2022-11-13T14:21:32.032Z,1.17
2022-11-13T14:24:27.179Z,1.10
2022-11-13T14:27:25.253Z,1.40
2022-11-13T14:30:35.184Z,1.13
2022-11-13T14:33:45.215Z,1.00
2022-11-13T14:36:53.612Z,1.47
2022-11-13T14:39:54.410Z,1.50
2022-11-13T14:43:20.913Z,1.60
2022-11-13T14:46:40.590Z,1.10
2022-11-13T14:50:24.568Z,1.20
2022-11-13T14:54:10.370Z,0.90
2022-11-13T14:57:25.288Z,0.90
2022-11-13T15:00:55.556Z,1.40
2022-11-13T15:03:46.536Z,1.57
2022-11-13T15:06:47.947Z,1.00
2022-11-13T15:09:41.410Z,1.00
2022-11-13T15:12:31.119Z,1.00
2022-11-13T15:15:22.746Z,1.20
2022-11-13T15:18:17.000Z,2.03
2022-11-13T15:21:07.469Z,1.57
2022-11-13T15:24:01.810Z,1.60
2022-11-13T15:26:51.596Z,1.57
2022-11-13T15:29:40.546Z,1.70
2022-11-13T15:32:31.285Z,1.63
2022-11-13T15:35:21.654Z,1.90
2022-11-13T15:38:12.226Z,1.67
2022-11-13T15:41:04.691Z,1.60
2022-11-13T15:43:59.706Z,1.80
2022-11-13T15:46:50.763Z,1.97
2022-11-13T15:49:56.743Z,1.40
2022-11-13T15:53:05.403Z,1.43
2022-11-13T15:55:56.132Z,1.30
2022-11-13T15:58:48.860Z,1.43
2022-11-13T16:01:44.110Z,2.23
2022-11-13T16:04:55.634Z,1.43
2022-11-13T16:07:48.727Z,1.67
2022-11-13T16:10:40.972Z,1.93
2022-11-13T16:13:30.972Z,3.77
2022-11-13T16:16:28.178Z,2.27
2022-11-13T16:19:27.953Z,12.27
2022-11-13T16:22:21.619Z,2.80
2022-11-13T16:25:13.123Z,2.43
2022-11-13T16:28:02.731Z,2.20
2022-11-13T16:30:52.881Z,2.70
2022-11-13T16:33:45.155Z,2.93
2022-11-13T16:36:34.103Z,20.80
2022-11-13T16:39:26.201Z,2.50
2022-11-13T16:42:16.590Z,1.87
2022-11-13T16:45:05.863Z,2.10
2022-11-13T16:47:55.742Z,1.80
2022-11-13T16:50:47.564Z,1.90
2022-11-13T16:53:35.936Z,3.20
2022-11-13T16:56:29.286Z,4.17
2022-11-13T16:59:22.352Z,2.90
2022-11-13T17:02:17.538Z,1.80
2022-11-13T17:05:07.122Z,1.30
2022-11-13T17:08:02.147Z,1.80
2022-11-13T17:10:59.049Z,1.43
2022-11-13T17:13:52.571Z,1.60
2022-11-13T17:16:41.408Z,2.07
2022-11-13T17:19:31.842Z,2.60
2022-11-13T17:22:20.092Z,3.00
2022-11-13T17:25:12.453Z,3.87
2022-11-13T17:28:01.489Z,4.97
2022-11-13T17:30:56.354Z,5.27
2022-11-13T17:33:47.030Z,4.57
2022-11-13T17:36:35.542Z,5.53
2022-11-13T17:39:26.568Z,3.50
2022-11-13T17:42:18.020Z,3.83
2022-11-13T17:45:07.596Z,3.30
2022-11-13T17:47:55.968Z,3.47
2022-11-13T17:50:44.612Z,3.90
2022-11-13T17:53:39.102Z,2.97
2022-11-13T17:56:29.211Z,4.43
2022-11-13T17:59:24.006Z,3.97
2022-11-13T18:02:14.789Z,2.90
2022-11-13T18:05:04.384Z,2.80
2022-11-13T18:07:53.230Z,2.90
2022-11-13T18:10:43.306Z,2.50
2022-11-13T18:13:33.036Z,3.47
2022-11-13T18:16:25.994Z,2.97
2022-11-13T18:19:17.177Z,2.70
2022-11-13T18:22:06.027Z,3.60
2022-11-13T18:24:56.705Z,10.47
2022-11-13T18:27:45.531Z,30.93
2022-11-13T18:30:22.155Z,20.30
2022-11-13T18:33:13.892Z,3.77
2022-11-13T18:36:02.142Z,3.10
2022-11-13T18:38:50.775Z,16.57
2022-11-13T18:41:39.474Z,3.23
2022-11-13T18:44:28.468Z,2.60
2022-11-13T18:47:17.888Z,2.90
2022-11-13T18:50:13.934Z,2.60
2022-11-13T18:53:03.198Z,2.57
2022-11-13T18:55:51.997Z,2.50
2022-11-13T18:58:41.732Z,2.23
2022-11-13T19:01:31.929Z,3.07
2022-11-13T19:04:23.549Z,2.87
2022-11-13T19:07:16.579Z,2.03
2022-11-13T19:10:05.609Z,2.70
2022-11-13T19:12:55.006Z,2.93
2022-11-13T19:15:50.125Z,2.00
2022-11-13T19:18:40.623Z,2.97
2022-11-13T19:21:30.706Z,2.93
2022-11-13T19:24:22.599Z,4.50
2022-11-13T19:27:11.357Z,3.00
2022-11-13T19:30:01.938Z,5.90
2022-11-13T19:32:51.367Z,7.40
2022-11-13T19:35:42.665Z,3.33
2022-11-13T19:38:32.704Z,3.80
2022-11-13T19:41:24.471Z,2.70
2022-11-13T19:44:15.917Z,2.67
2022-11-13T19:47:05.007Z,2.57
2022-11-13T19:49:54.036Z,1.70
2022-11-13T19:52:42.620Z,3.43
2022-11-13T19:55:32.531Z,2.30
2022-11-13T19:58:29.266Z,2.70
2022-11-13T20:01:20.101Z,2.70
2022-11-13T20:04:09.394Z,3.30
2022-11-13T20:06:58.221Z,4.00
2022-11-13T20:09:46.457Z,2.80
2022-11-13T20:12:35.458Z,2.30
2022-11-13T20:15:26.991Z,3.00
2022-11-13T20:18:17.849Z,2.20
2022-11-13T20:21:10.690Z,2.90
2022-11-13T20:24:02.039Z,2.57
2022-11-13T20:26:52.264Z,2.90
2022-11-13T20:29:41.567Z,1.93
2022-11-13T20:32:32.558Z,2.10
2022-11-13T20:35:21.279Z,3.20
2022-11-13T20:38:11.170Z,3.50
2022-11-13T20:40:59.793Z,3.00
2022-11-13T20:43:51.808Z,2.63
2022-11-13T20:46:43.791Z,1.80
2022-11-13T20:49:35.172Z,2.10
2022-11-13T20:52:23.480Z,1.70
2022-11-13T20:55:12.574Z,1.90
2022-11-13T20:58:01.698Z,2.10
2022-11-13T21:00:50.260Z,2.90
2022-11-13T21:03:42.505Z,2.17
2022-11-13T21:06:33.991Z,3.53
2022-11-13T21:09:24.981Z,4.00
2022-11-13T21:12:17.571Z,3.33
2022-11-13T21:15:07.569Z,4.00
2022-11-13T21:17:56.186Z,3.20
2022-11-13T21:20:44.585Z,4.27
2022-11-13T21:23:37.290Z,4.50
2022-11-13T21:26:28.391Z,10.03
2022-11-13T21:29:18.591Z,6.43
2022-11-13T21:32:07.355Z,5.67
2022-11-13T21:34:59.353Z,4.83
2022-11-13T21:37:52.397Z,3.40
2022-11-13T21:40:43.186Z,2.63
2022-11-13T21:43:35.316Z,3.27
2022-11-13T21:46:25.773Z,2.93
2022-11-13T21:49:16.165Z,2.47
2022-11-13T21:52:04.525Z,3.20
2022-11-13T21:54:53.401Z,3.10
2022-11-13T21:57:45.275Z,2.80
2022-11-13T22:00:33.719Z,2.43
2022-11-13T22:03:23.467Z,1.93
2022-11-13T22:06:20.255Z,2.40
2022-11-13T22:09:15.315Z,2.80
2022-11-13T22:12:03.986Z,3.50
2022-11-13T22:14:56.014Z,2.83
2022-11-13T22:17:48.612Z,3.03
2022-11-13T22:20:37.169Z,2.10
2022-11-13T22:23:28.457Z,2.60
2022-11-13T22:26:18.187Z,3.63
2022-11-13T22:29:08.130Z,3.03
2022-11-13T22:31:58.766Z,3.10
2022-11-13T22:34:47.754Z,3.37
2022-11-13T22:37:36.910Z,3.00
2022-11-13T22:40:25.426Z,3.30
2022-11-13T22:43:14.961Z,3.70
2022-11-13T22:46:07.835Z,3.40
2022-11-13T22:49:02.118Z,2.90
2022-11-13T22:51:51.402Z,3.67
2022-11-13T22:54:40.824Z,3.13
2022-11-13T22:57:29.036Z,3.87
2022-11-13T23:00:18.454Z,3.50
2022-11-13T23:03:07.303Z,3.23
2022-11-13T23:05:58.341Z,3.20
2022-11-13T23:08:50.975Z,3.10
2022-11-13T23:11:42.278Z,2.83
2022-11-13T23:14:31.792Z,2.80
2022-11-13T23:17:20.528Z,3.47
2022-11-13T23:20:11.523Z,4.50
2022-11-13T23:23:02.785Z,5.20
2022-11-13T23:25:50.994Z,4.37
2022-11-13T23:28:41.300Z,4.10
2022-11-13T23:31:30.177Z,3.43
2022-11-13T23:34:52.670Z,2.90
2022-11-13T23:37:33.009Z,3.03
2022-11-13T23:40:24.698Z,2.60
2022-11-13T23:43:16.733Z,2.80
2022-11-13T23:46:05.719Z,2.97
2022-11-13T23:48:55.579Z,3.00
2022-11-13T23:51:44.169Z,2.87
2022-11-13T23:54:32.943Z,3.40
2022-11-13T23:57:24.471Z,3.10
